createdAt,value
2018-07-31T00:00:05.685Z,23.42
2018-07-31T00:02:34.917Z,23.37
2018-07-31T00:05:03.661Z,23.38
2018-07-31T00:07:32.173Z,23.41
2018-07-31T00:10:00.970Z,23.42
2018-07-31T00:12:29.843Z,23.41
2018-07-31T00:14:58.365Z,23.41
2018-07-31T00:17:27.392Z,23.41
2018-07-31T00:19:55.879Z,23.40
2018-07-31T00:22:24.612Z,22.54
2018-07-31T00:24:53.451Z,23.39
2018-07-31T00:27:21.934Z,23.38
2018-07-31T00:29:50.403Z,23.36
2018-07-31T00:32:19.141Z,23.34
2018-07-31T00:34:47.974Z,23.31
2018-07-31T00:37:16.697Z,23.17
2018-07-31T00:39:46.489Z,23.28
2018-07-31T00:42:14.975Z,23.27
2018-07-31T00:44:43.556Z,23.26
2018-07-31T00:47:12.478Z,23.27
2018-07-31T00:49:41.098Z,23.25
2018-07-31T00:52:09.562Z,23.23
2018-07-31T00:54:38.538Z,23.21
2018-07-31T00:57:07.553Z,23.20
2018-07-31T00:59:36.013Z,23.19
2018-07-31T01:02:05.207Z,23.17
2018-07-31T01:04:33.798Z,23.12
2018-07-31T01:07:02.370Z,23.07
2018-07-31T01:09:31.631Z,23.05
2018-07-31T01:12:01.141Z,23.05
2018-07-31T01:14:29.740Z,23.05
2018-07-31T01:16:58.857Z,23.07
2018-07-31T01:19:27.370Z,23.05
2018-07-31T01:21:55.839Z,23.05
2018-07-31T01:24:25.129Z,23.04
2018-07-31T01:26:53.978Z,23.03
2018-07-31T01:29:22.473Z,23.05
2018-07-31T01:31:51.643Z,23.02
2018-07-31T01:34:20.111Z,22.96
2018-07-31T01:36:48.561Z,22.93
2018-07-31T01:39:17.639Z,22.92
2018-07-31T01:41:46.326Z,22.91
2018-07-31T01:44:14.905Z,22.94
2018-07-31T01:46:44.094Z,22.93
2018-07-31T01:49:12.873Z,22.95
2018-07-31T01:51:41.573Z,22.98
2018-07-31T01:54:10.878Z,22.97
2018-07-31T01:56:39.382Z,22.95
2018-07-31T01:59:07.921Z,22.96
2018-07-31T02:01:36.727Z,22.89
2018-07-31T02:04:05.313Z,22.86
2018-07-31T02:06:34.302Z,22.86
2018-07-31T02:09:03.366Z,22.85
2018-07-31T02:11:31.849Z,22.86
2018-07-31T02:14:00.313Z,22.89
2018-07-31T02:16:29.512Z,22.92
2018-07-31T02:18:58.001Z,22.93
2018-07-31T02:21:26.701Z,22.92
2018-07-31T02:23:56.125Z,22.93
2018-07-31T02:26:24.600Z,22.92
2018-07-31T02:28:53.153Z,22.93
2018-07-31T02:31:22.241Z,22.92
2018-07-31T02:33:50.717Z,22.94
2018-07-31T02:36:19.450Z,22.95
2018-07-31T02:38:48.542Z,22.94
2018-07-31T02:41:17.125Z,22.93
2018-07-31T02:43:45.566Z,22.92
2018-07-31T02:46:14.606Z,22.86
2018-07-31T02:48:43.089Z,22.85
2018-07-31T02:51:11.569Z,22.87
2018-07-31T02:53:47.272Z,22.86
2018-07-31T02:56:15.973Z,22.84
2018-07-31T02:58:44.483Z,22.85
2018-07-31T03:01:13.410Z,22.88
2018-07-31T03:03:41.854Z,22.91
2018-07-31T03:06:10.321Z,22.90
2018-07-31T03:08:39.586Z,22.90
2018-07-31T03:11:08.113Z,22.91
2018-07-31T03:13:36.767Z,22.92
2018-07-31T03:16:05.801Z,22.94
2018-07-31T03:18:34.221Z,22.95
2018-07-31T03:21:02.696Z,22.96
2018-07-31T03:23:31.699Z,22.96
2018-07-31T03:26:00.796Z,22.93
2018-07-31T03:28:29.389Z,22.97
2018-07-31T03:30:58.677Z,23.01
2018-07-31T03:33:27.097Z,23.04
2018-07-31T03:35:55.867Z,23.07
2018-07-31T03:38:24.604Z,23.11
2018-07-31T03:40:53.053Z,23.11
2018-07-31T03:43:21.494Z,23.13
2018-07-31T03:45:50.458Z,23.16
2018-07-31T03:48:18.980Z,23.19
2018-07-31T03:50:47.413Z,23.22
2018-07-31T03:53:16.169Z,23.27
2018-07-31T03:55:44.620Z,23.30
2018-07-31T03:58:13.082Z,23.36
2018-07-31T04:00:41.721Z,23.39
2018-07-31T04:03:10.169Z,23.45
2018-07-31T04:05:38.712Z,23.51
2018-07-31T04:08:07.733Z,23.54
2018-07-31T04:10:36.204Z,23.56
2018-07-31T04:13:04.661Z,23.57
2018-07-31T04:15:34.076Z,23.60
2018-07-31T04:18:02.530Z,23.66
2018-07-31T04:20:30.987Z,23.66
2018-07-31T04:23:00.097Z,23.70
2018-07-31T04:25:28.584Z,23.71
2018-07-31T04:27:57.049Z,23.73
2018-07-31T04:30:26.144Z,23.77
2018-07-31T04:32:54.704Z,23.77
2018-07-31T04:35:23.170Z,23.78
2018-07-31T04:37:51.894Z,23.80
2018-07-31T04:40:20.453Z,23.83
2018-07-31T04:42:49.070Z,23.85
2018-07-31T04:45:17.699Z,23.88
2018-07-31T04:47:46.165Z,23.91
2018-07-31T04:50:14.656Z,23.92
2018-07-31T04:52:43.413Z,23.95
2018-07-31T04:55:11.917Z,23.99
2018-07-31T04:57:40.640Z,24.03
2018-07-31T05:00:09.839Z,24.08
2018-07-31T05:02:39.179Z,24.07
2018-07-31T05:05:07.649Z,24.00
2018-07-31T05:07:39.501Z,23.93
2018-07-31T05:10:13.129Z,23.94
2018-07-31T05:12:43.952Z,24.02
2018-07-31T05:15:12.477Z,24.10
2018-07-31T05:17:41.024Z,24.13
2018-07-31T05:20:10.980Z,24.14
2018-07-31T05:22:40.618Z,24.09
2018-07-31T05:25:09.107Z,24.06
2018-07-31T05:27:38.193Z,24.02
2018-07-31T05:30:08.649Z,24.04
2018-07-31T05:32:37.331Z,24.06
2018-07-31T05:35:06.576Z,24.07
2018-07-31T05:37:35.218Z,24.09
2018-07-31T05:40:03.742Z,24.11
2018-07-31T05:42:32.407Z,24.12
2018-07-31T05:45:00.842Z,24.19
2018-07-31T05:47:30.169Z,24.28
2018-07-31T05:49:59.065Z,24.33
2018-07-31T05:52:27.639Z,24.33
2018-07-31T05:54:56.497Z,24.37
2018-07-31T05:57:25.746Z,24.38
2018-07-31T05:59:54.342Z,24.40
2018-07-31T06:02:23.096Z,24.49
2018-07-31T06:04:51.745Z,24.53
2018-07-31T06:07:20.465Z,24.61
2018-07-31T06:09:48.903Z,24.71
2018-07-31T06:12:17.533Z,24.77
2018-07-31T06:14:46.122Z,24.87
2018-07-31T06:17:14.690Z,25.04
2018-07-31T06:19:43.401Z,25.18
2018-07-31T06:22:11.881Z,25.21
2018-07-31T06:24:40.324Z,25.29
2018-07-31T06:27:09.568Z,25.31
2018-07-31T06:29:38.285Z,25.33
2018-07-31T06:32:06.805Z,25.33
2018-07-31T06:34:35.766Z,25.35
2018-07-31T06:37:04.389Z,25.39
2018-07-31T06:39:32.878Z,25.30
2018-07-31T06:42:01.886Z,25.28
2018-07-31T06:44:30.590Z,25.28
2018-07-31T06:46:59.339Z,25.10
2018-07-31T06:49:28.494Z,25.28
2018-07-31T06:51:56.925Z,25.23
2018-07-31T06:54:25.351Z,25.00
2018-07-31T06:56:54.274Z,25.06
2018-07-31T06:59:22.741Z,25.05
2018-07-31T07:01:51.189Z,25.20
2018-07-31T07:04:19.995Z,25.37
2018-07-31T07:06:48.457Z,25.46
2018-07-31T07:09:17.254Z,25.46
2018-07-31T07:11:46.051Z,25.53
2018-07-31T07:14:14.609Z,25.57
2018-07-31T07:16:43.308Z,25.66
2018-07-31T07:19:12.417Z,25.69
2018-07-31T07:21:40.913Z,25.73
2018-07-31T07:24:09.650Z,25.80
2018-07-31T07:26:38.837Z,25.84
2018-07-31T07:29:07.335Z,25.99
2018-07-31T07:31:35.900Z,26.27
2018-07-31T07:34:05.262Z,26.80
2018-07-31T07:36:33.696Z,27.37
2018-07-31T07:39:07.357Z,27.82
2018-07-31T07:41:35.865Z,28.13
2018-07-31T07:44:04.379Z,28.43
2018-07-31T07:46:32.940Z,28.48
2018-07-31T07:49:01.693Z,28.38
2018-07-31T07:51:30.437Z,28.30
2018-07-31T07:53:59.517Z,28.57
2018-07-31T07:56:28.009Z,29.01
2018-07-31T07:58:56.831Z,29.53
2018-07-31T08:01:27.847Z,29.68
2018-07-31T08:03:56.400Z,29.64
2018-07-31T08:06:25.066Z,29.77
2018-07-31T08:08:54.729Z,30.03
2018-07-31T08:11:24.131Z,30.47
2018-07-31T08:13:52.746Z,30.79
2018-07-31T08:16:22.067Z,30.89
2018-07-31T08:18:50.535Z,30.74
2018-07-31T08:21:19.054Z,31.00
2018-07-31T08:23:48.431Z,31.23
2018-07-31T08:26:16.930Z,31.44
2018-07-31T08:28:46.338Z,31.59
2018-07-31T08:31:15.037Z,31.62
2018-07-31T08:33:43.651Z,31.54
2018-07-31T08:36:12.089Z,31.62
2018-07-31T08:38:41.883Z,32.09
2018-07-31T08:41:10.369Z,32.44
2018-07-31T08:43:38.850Z,32.30
2018-07-31T08:46:08.382Z,32.16
2018-07-31T08:48:36.825Z,32.32
2018-07-31T08:51:05.627Z,32.60
2018-07-31T08:53:34.366Z,32.37
2018-07-31T08:56:02.932Z,32.10
2018-07-31T08:58:31.369Z,32.57
2018-07-31T09:01:01.089Z,32.77
2018-07-31T09:03:30.108Z,32.15
2018-07-31T09:05:58.624Z,31.87
2018-07-31T09:08:27.884Z,31.82
2018-07-31T09:10:56.445Z,31.51
2018-07-31T09:13:24.982Z,31.88
2018-07-31T09:15:54.770Z,32.30
2018-07-31T09:18:23.229Z,32.86
2018-07-31T09:20:51.733Z,33.43
2018-07-31T09:23:20.813Z,34.05
2018-07-31T09:25:49.303Z,34.40
2018-07-31T09:28:18.690Z,34.76
2018-07-31T09:30:52.849Z,35.00
2018-07-31T09:33:21.745Z,35.03
2018-07-31T09:35:50.542Z,35.21
2018-07-31T09:38:19.374Z,35.45
2018-07-31T09:40:47.853Z,34.67
2018-07-31T09:43:16.317Z,34.18
2018-07-31T09:45:45.140Z,33.69
2018-07-31T09:48:14.097Z,33.15
2018-07-31T09:50:42.630Z,33.36
2018-07-31T09:53:11.282Z,34.10
2018-07-31T09:55:39.857Z,34.26
2018-07-31T09:58:08.324Z,34.08
2018-07-31T10:00:42.465Z,33.97
2018-07-31T10:03:11.271Z,34.16
2018-07-31T10:05:40.013Z,34.29
2018-07-31T10:08:13.183Z,34.70
2018-07-31T10:10:48.942Z,35.06
2018-07-31T10:13:18.235Z,35.72
2018-07-31T10:15:46.748Z,36.36
2018-07-31T10:18:15.412Z,36.75
2018-07-31T10:20:44.541Z,36.83
2018-07-31T10:23:13.587Z,36.94
2018-07-31T10:25:42.585Z,37.20
2018-07-31T10:28:11.268Z,37.29
2018-07-31T10:30:39.790Z,37.37
2018-07-31T10:33:08.463Z,36.87
2018-07-31T10:35:37.314Z,36.30
2018-07-31T10:38:06.918Z,36.08
2018-07-31T10:40:35.445Z,36.45
2018-07-31T10:43:04.266Z,36.73
2018-07-31T10:45:32.808Z,37.12
2018-07-31T10:48:02.359Z,37.60
2018-07-31T10:50:31.234Z,38.05
2018-07-31T10:52:59.934Z,38.14
2018-07-31T10:55:28.839Z,37.53
2018-07-31T10:57:57.629Z,37.37
2018-07-31T11:00:26.094Z,37.51
2018-07-31T11:02:54.648Z,37.48
2018-07-31T11:05:23.609Z,37.42
2018-07-31T11:07:52.073Z,36.71
2018-07-31T11:10:20.590Z,35.80
2018-07-31T11:12:49.413Z,35.31
2018-07-31T11:15:19.010Z,35.20
2018-07-31T11:17:48.049Z,35.60
2018-07-31T11:20:17.655Z,36.26
2018-07-31T11:22:46.121Z,37.05
2018-07-31T11:25:15.021Z,37.02
2018-07-31T11:27:44.270Z,36.67
2018-07-31T11:30:12.737Z,36.42
2018-07-31T11:32:41.358Z,36.01
2018-07-31T11:35:10.321Z,35.78
2018-07-31T11:37:38.811Z,35.42
2018-07-31T11:40:07.496Z,34.90
2018-07-31T11:42:36.378Z,34.64
2018-07-31T11:45:05.677Z,35.17
2018-07-31T11:47:34.710Z,35.84
2018-07-31T11:50:03.416Z,36.33
2018-07-31T11:52:32.740Z,36.42
2018-07-31T11:55:01.691Z,36.55
2018-07-31T11:57:31.258Z,36.81
2018-07-31T11:59:59.725Z,36.97
2018-07-31T12:02:28.501Z,36.56
2018-07-31T12:04:57.957Z,35.88
2018-07-31T12:07:26.413Z,35.00
2018-07-31T12:09:55.041Z,34.52
2018-07-31T12:12:23.977Z,34.05
2018-07-31T12:14:52.486Z,33.49
2018-07-31T12:17:20.934Z,33.04
2018-07-31T12:19:49.510Z,32.74
2018-07-31T12:22:17.965Z,32.48
2018-07-31T12:24:46.730Z,32.16
2018-07-31T12:27:15.483Z,31.96
2018-07-31T12:29:43.941Z,31.83
2018-07-31T12:32:12.681Z,31.65
2018-07-31T12:34:41.846Z,31.72
2018-07-31T12:37:11.166Z,31.73
2018-07-31T12:39:39.717Z,31.62
2018-07-31T12:42:09.186Z,31.55
2018-07-31T12:44:37.739Z,31.36
2018-07-31T12:47:06.291Z,31.26
2018-07-31T12:49:35.216Z,31.09
2018-07-31T12:52:03.682Z,31.13
2018-07-31T12:54:32.667Z,31.51
2018-07-31T12:57:01.241Z,31.90
2018-07-31T12:59:29.709Z,31.92
2018-07-31T13:01:58.439Z,32.22
2018-07-31T13:04:27.601Z,32.45
2018-07-31T13:06:56.174Z,33.19
2018-07-31T13:09:24.625Z,33.38
2018-07-31T13:11:53.410Z,33.31
2018-07-31T13:14:21.915Z,33.04
2018-07-31T13:16:50.377Z,33.20
2018-07-31T13:19:19.161Z,34.03
2018-07-31T13:21:47.609Z,34.53
2018-07-31T13:24:16.513Z,34.75
2018-07-31T13:26:45.470Z,35.21
2018-07-31T13:29:13.913Z,35.29
2018-07-31T13:31:42.379Z,35.52
2018-07-31T13:34:11.213Z,35.28
2018-07-31T13:36:39.673Z,35.24
2018-07-31T13:39:10.029Z,35.27
2018-07-31T13:41:38.862Z,35.42
2018-07-31T13:44:08.174Z,35.63
2018-07-31T13:46:37.150Z,35.67
2018-07-31T13:49:06.135Z,36.05
2018-07-31T13:51:34.609Z,36.40
2018-07-31T13:54:03.249Z,36.07
2018-07-31T13:56:32.138Z,36.22
2018-07-31T13:59:00.714Z,36.06
2018-07-31T14:01:29.592Z,35.70
2018-07-31T14:03:58.513Z,36.14
2018-07-31T14:06:26.965Z,36.26
2018-07-31T14:08:55.409Z,36.12
2018-07-31T14:11:24.253Z,35.78
2018-07-31T14:13:52.772Z,35.65
2018-07-31T14:16:21.154Z,36.00
2018-07-31T14:18:50.333Z,36.37
2018-07-31T14:21:18.770Z,36.04
2018-07-31T14:23:47.253Z,36.27
2018-07-31T14:26:16.057Z,36.71
2018-07-31T14:28:44.509Z,37.27
2018-07-31T14:31:12.978Z,37.24
2018-07-31T14:33:41.805Z,37.07
2018-07-31T14:36:10.306Z,36.89
2018-07-31T14:38:38.989Z,37.06
2018-07-31T14:41:07.873Z,37.17
2018-07-31T14:43:36.361Z,37.40
2018-07-31T14:46:05.010Z,37.24
2018-07-31T14:48:33.913Z,37.22
2018-07-31T14:51:02.345Z,37.26
2018-07-31T14:53:31.017Z,37.02
2018-07-31T14:56:00.346Z,36.61
2018-07-31T14:58:29.457Z,36.14
2018-07-31T15:00:58.433Z,36.39
2018-07-31T15:03:27.574Z,36.60
2018-07-31T15:05:56.473Z,36.29
2018-07-31T15:08:25.004Z,35.78
2018-07-31T15:10:53.694Z,35.55
2018-07-31T15:13:22.153Z,35.26
2018-07-31T15:15:50.621Z,35.36
2018-07-31T15:18:19.538Z,35.70
2018-07-31T15:20:47.981Z,36.03
2018-07-31T15:23:16.437Z,35.85
2018-07-31T15:25:45.121Z,35.72
2018-07-31T15:28:13.758Z,35.56
2018-07-31T15:30:42.250Z,35.19
2018-07-31T15:33:11.182Z,34.97
2018-07-31T15:35:39.699Z,34.87
2018-07-31T15:38:08.431Z,34.29
2018-07-31T15:40:37.337Z,34.05
2018-07-31T15:43:05.992Z,33.76
2018-07-31T15:45:34.708Z,33.77
2018-07-31T15:48:03.931Z,34.04
2018-07-31T15:50:32.367Z,34.27
2018-07-31T15:53:00.857Z,34.28
2018-07-31T15:55:30.024Z,34.22
2018-07-31T15:57:58.716Z,33.94
2018-07-31T16:00:27.954Z,33.42
2018-07-31T16:02:56.629Z,33.19
2018-07-31T16:05:25.109Z,33.13
2018-07-31T16:07:53.630Z,32.82
2018-07-31T16:10:22.385Z,32.71
2018-07-31T16:12:50.947Z,32.71
2018-07-31T16:15:19.508Z,32.51
2018-07-31T16:17:48.125Z,32.24
2018-07-31T16:20:16.793Z,32.31
2018-07-31T16:22:45.365Z,32.59
2018-07-31T16:25:14.559Z,32.62
2018-07-31T16:27:43.036Z,33.08
2018-07-31T16:30:11.685Z,33.43
2018-07-31T16:32:40.850Z,33.84
2018-07-31T16:35:09.417Z,34.18
2018-07-31T16:37:37.984Z,34.12
2018-07-31T16:40:06.643Z,34.16
2018-07-31T16:42:35.108Z,34.08
2018-07-31T16:45:06.326Z,34.13
2018-07-31T16:47:34.870Z,34.31
2018-07-31T16:50:03.893Z,33.63
2018-07-31T16:52:32.398Z,33.25
2018-07-31T16:55:01.477Z,33.28
2018-07-31T16:57:30.110Z,33.06
2018-07-31T17:00:00.008Z,32.96
2018-07-31T17:02:28.771Z,32.79
2018-07-31T17:04:57.244Z,32.93
2018-07-31T17:07:26.602Z,32.57
2018-07-31T17:09:55.744Z,32.16
2018-07-31T17:12:24.315Z,32.12
2018-07-31T17:14:53.800Z,31.66
2018-07-31T17:17:22.414Z,31.28
2018-07-31T17:19:50.883Z,31.04
2018-07-31T17:22:19.569Z,30.60
2018-07-31T17:24:50.089Z,30.16
2018-07-31T17:27:19.026Z,29.88
2018-07-31T17:29:47.817Z,29.68
2018-07-31T17:32:16.485Z,29.58
2018-07-31T17:34:45.075Z,29.34
2018-07-31T17:37:13.802Z,29.11
2018-07-31T17:39:42.422Z,28.98
2018-07-31T17:42:10.925Z,28.77
2018-07-31T17:44:39.432Z,28.69
2018-07-31T17:47:08.181Z,28.66
2018-07-31T17:49:36.645Z,28.60
2018-07-31T17:52:06.335Z,28.53
2018-07-31T17:54:35.148Z,28.37
2018-07-31T17:57:04.541Z,28.17
2018-07-31T17:59:33.585Z,27.91
2018-07-31T18:02:02.717Z,27.76
2018-07-31T18:04:32.204Z,27.65
2018-07-31T18:07:02.091Z,27.51
2018-07-31T18:09:32.003Z,27.44
2018-07-31T18:12:01.526Z,27.45
2018-07-31T18:14:30.980Z,27.41
2018-07-31T18:17:00.210Z,27.35
2018-07-31T18:19:28.801Z,27.33
2018-07-31T18:21:57.508Z,27.24
2018-07-31T18:24:26.135Z,27.15
2018-07-31T18:26:54.613Z,27.07
2018-07-31T18:29:23.332Z,27.04
2018-07-31T18:31:52.193Z,27.02
2018-07-31T18:34:21.581Z,26.95
2018-07-31T18:36:50.215Z,26.95
2018-07-31T18:39:19.474Z,26.96
2018-07-31T18:41:47.956Z,27.01
2018-07-31T18:44:16.889Z,26.91
2018-07-31T18:46:45.530Z,26.80
2018-07-31T18:49:14.001Z,26.75
2018-07-31T18:51:42.634Z,26.68
2018-07-31T18:54:11.646Z,26.58
2018-07-31T18:56:40.521Z,26.50
2018-07-31T18:59:09.308Z,26.44
2018-07-31T19:01:38.308Z,26.37
2018-07-31T19:04:07.133Z,26.30
2018-07-31T19:06:35.734Z,26.27
2018-07-31T19:09:05.945Z,26.23
2018-07-31T19:11:34.411Z,26.20
2018-07-31T19:14:02.972Z,26.13
2018-07-31T19:16:31.963Z,26.10
2018-07-31T19:19:00.657Z,26.10
2018-07-31T19:21:29.621Z,26.04
2018-07-31T19:23:58.264Z,26.00
2018-07-31T19:26:26.781Z,25.97
2018-07-31T19:28:55.790Z,25.96
2018-07-31T19:31:27.138Z,25.95
2018-07-31T19:33:56.068Z,25.91
2018-07-31T19:36:24.470Z,25.83
2018-07-31T19:38:53.564Z,25.76
2018-07-31T19:41:22.524Z,25.69
2018-07-31T19:43:51.062Z,25.61
2018-07-31T19:46:19.931Z,25.61
2018-07-31T19:48:48.748Z,25.61
2018-07-31T19:51:17.420Z,25.54
2018-07-31T19:53:46.241Z,25.51
2018-07-31T19:56:14.909Z,25.47
2018-07-31T19:58:43.378Z,25.40
2018-07-31T20:01:11.961Z,25.35
2018-07-31T20:03:40.832Z,25.31
2018-07-31T20:06:09.355Z,25.23
2018-07-31T20:08:38.597Z,25.18
2018-07-31T20:11:07.774Z,25.17
2018-07-31T20:13:36.243Z,25.11
2018-07-31T20:16:05.983Z,25.07
2018-07-31T20:18:34.745Z,25.03
2018-07-31T20:21:03.752Z,24.99
2018-07-31T20:23:33.185Z,24.90
2018-07-31T20:26:01.897Z,24.97
2018-07-31T20:28:30.345Z,24.92
2018-07-31T20:30:59.041Z,24.89
2018-07-31T20:33:28.004Z,24.85
2018-07-31T20:35:56.496Z,24.86
2018-07-31T20:38:25.340Z,24.87
2018-07-31T20:40:54.531Z,24.83
2018-07-31T20:43:23.136Z,24.82
2018-07-31T20:47:41.323Z,24.81
2018-07-31T20:50:09.873Z,24.78
2018-07-31T20:52:38.326Z,24.76
2018-07-31T20:55:07.297Z,24.77
2018-07-31T20:57:36.289Z,24.77
2018-07-31T21:00:05.883Z,24.75
2018-07-31T21:02:34.968Z,24.76
2018-07-31T21:05:03.684Z,24.75
2018-07-31T21:07:32.138Z,24.65
2018-07-31T21:10:01.082Z,24.61
2018-07-31T21:12:30.202Z,24.61
2018-07-31T21:14:59.074Z,24.54
2018-07-31T21:17:28.926Z,24.48
2018-07-31T21:19:57.605Z,24.44
2018-07-31T21:22:26.809Z,24.42
2018-07-31T21:26:48.950Z,24.36
2018-07-31T21:29:17.382Z,24.34
2018-07-31T21:31:46.081Z,24.32
2018-07-31T21:34:15.018Z,24.13
2018-07-31T21:36:43.605Z,24.24
2018-07-31T21:39:13.416Z,24.21
2018-07-31T21:41:42.898Z,24.17
2018-07-31T21:44:11.821Z,24.10
2018-07-31T21:46:40.350Z,24.06
2018-07-31T21:49:09.631Z,24.07
2018-07-31T21:51:40.994Z,24.03
2018-07-31T21:54:09.475Z,23.61
2018-07-31T21:56:38.705Z,23.95
2018-07-31T21:59:07.588Z,23.92
2018-07-31T22:01:36.129Z,23.92
2018-07-31T22:04:05.124Z,23.90
2018-07-31T22:06:33.797Z,23.88
2018-07-31T22:09:02.325Z,23.88
2018-07-31T22:11:32.049Z,23.88
2018-07-31T22:14:01.581Z,23.88
2018-07-31T22:16:30.534Z,23.86
2018-07-31T22:18:59.692Z,23.83
2018-07-31T22:21:28.424Z,23.82
2018-07-31T22:23:56.930Z,23.79
2018-07-31T22:26:26.056Z,23.78
2018-07-31T22:28:54.504Z,23.74
2018-07-31T22:31:23.277Z,23.75
2018-07-31T22:33:52.057Z,23.72
2018-07-31T22:36:20.630Z,23.72
2018-07-31T22:38:49.365Z,23.70
2018-07-31T22:41:18.458Z,23.70
2018-07-31T22:43:46.898Z,23.69
2018-07-31T22:46:15.412Z,23.67
2018-07-31T22:48:44.469Z,23.64
2018-07-31T22:51:12.922Z,23.62
2018-07-31T22:53:41.488Z,21.43
2018-07-31T22:56:10.833Z,23.58
2018-07-31T22:58:39.657Z,23.56
2018-07-31T23:01:08.501Z,23.54
2018-07-31T23:03:37.512Z,23.50
2018-07-31T23:06:05.992Z,23.50
2018-07-31T23:08:34.473Z,23.49
2018-07-31T23:11:03.568Z,23.46
2018-07-31T23:13:32.037Z,23.45
2018-07-31T23:16:01.440Z,23.46
2018-07-31T23:18:30.522Z,23.45
2018-07-31T23:20:58.985Z,23.43
2018-07-31T23:23:27.486Z,23.26
2018-07-31T23:25:56.489Z,23.40
2018-07-31T23:28:24.917Z,23.39
2018-07-31T23:30:53.384Z,23.39
2018-07-31T23:33:22.349Z,23.41
2018-07-31T23:35:50.785Z,23.41
2018-07-31T23:38:19.269Z,23.41
2018-07-31T23:40:48.405Z,23.39
2018-07-31T23:43:16.850Z,23.40
2018-07-31T23:45:46.298Z,23.43
2018-07-31T23:48:15.591Z,23.43
2018-07-31T23:50:44.351Z,23.41
2018-07-31T23:53:12.857Z,23.41
2018-07-31T23:55:41.746Z,23.41
2018-07-31T23:58:10.201Z,23.41
